Terminal Aerodrome Forecast
Issued by NWS

Home | Current Version | Previous Version | Text Only | Print | Product List | Glossary On
Versions: 1 2 3 4 5 6 7 8 9 10 11 12 13 14 15 16 17 18 19 20 21 22 23 24 25 26 27 28 29 30 31 32 33 34 35 36 37 38 39 40 41 42 43 44 45 46 47 48 49 50
000
FTUS45 KLKN 011933 AAB
TAFELY
TAF AMD
KELY 011933Z 0120/0218 02006KT P6SM VCSH SCT010 BKN035
      TEMPO 0120/0123 OVC010
     FM020000 17007KT 5SM -SHSN SCT010 OVC025
     FM021700 36009KT P6SM VCSH OVC040=

USA.gov is the U.S. government's official web portal to all federal, state and local government web resources and services.